createdAt,value
2023-04-02T00:01:02.128Z,96669.54
2023-04-02T00:03:43.132Z,96669.12
2023-04-02T00:06:26.146Z,96674.87
2023-04-02T00:08:54.061Z,96673.27
2023-04-02T00:11:32.430Z,96677.35
2023-04-02T00:14:04.037Z,96677.13
2023-04-02T00:16:32.631Z,96681.73
2023-04-02T00:19:04.054Z,96679.58
2023-04-02T00:21:37.259Z,96682.86
2023-04-02T00:24:20.574Z,96685.58
2023-04-02T00:26:53.082Z,96689.45
2023-04-02T00:29:21.499Z,96693.67
2023-04-02T00:31:52.628Z,96690.30
2023-04-02T00:34:23.514Z,96692.48
2023-04-02T00:36:52.413Z,96691.29
2023-04-02T00:39:25.333Z,96691.46
2023-04-02T00:41:54.047Z,96692.06
2023-04-02T00:44:28.226Z,96691.00
2023-04-02T00:46:56.252Z,96689.05
2023-04-02T00:49:27.187Z,96691.71
2023-04-02T00:52:00.506Z,96689.13
2023-04-02T00:54:31.220Z,96691.15
2023-04-02T00:56:59.252Z,96689.69
2023-04-02T00:59:34.930Z,96690.07
2023-04-02T01:02:15.217Z,96697.49
2023-04-02T01:04:52.905Z,96700.42
2023-04-02T01:07:25.018Z,96702.27
2023-04-02T01:09:52.879Z,96709.53
2023-04-02T01:12:47.801Z,96714.52
2023-04-02T01:15:20.603Z,96715.74
2023-04-02T01:17:48.629Z,96716.20
2023-04-02T01:20:22.699Z,96719.59
2023-04-02T01:22:59.786Z,96719.98
2023-04-02T01:25:36.413Z,96720.80
2023-04-02T01:28:26.870Z,96720.76
2023-04-02T01:30:56.736Z,96717.36
2023-04-02T01:33:29.472Z,96715.47
2023-04-02T01:36:29.774Z,96715.83
2023-04-02T01:39:03.727Z,96717.60
2023-04-02T01:41:39.982Z,96712.85
2023-04-02T01:44:09.763Z,96716.42
2023-04-02T01:46:40.031Z,96715.70
2023-04-02T01:49:13.807Z,96719.48
2023-04-02T01:51:47.437Z,96723.08
2023-04-02T01:54:17.650Z,96726.55
2023-04-02T01:56:45.946Z,96724.10
2023-04-02T01:59:15.476Z,96726.92
2023-04-02T02:01:52.170Z,96728.74
2023-04-02T02:04:25.734Z,96730.84
2023-04-02T02:06:53.796Z,96731.64
2023-04-02T02:10:02.158Z,96733.73
2023-04-02T02:12:37.709Z,96732.20
2023-04-02T02:15:14.702Z,96735.39
2023-04-02T02:17:48.517Z,96732.64
2023-04-02T02:20:22.608Z,96735.27
2023-04-02T02:23:00.887Z,96731.78
2023-04-02T02:25:34.054Z,96730.38
2023-04-02T02:28:11.529Z,96729.96
2023-04-02T02:30:39.838Z,96730.35
2023-04-02T02:33:20.463Z,96731.60
2023-04-02T02:35:52.796Z,96735.67
2023-04-02T02:38:39.952Z,96740.48
2023-04-02T02:41:40.379Z,96740.64
2023-04-02T02:44:08.472Z,96739.09
2023-04-02T02:46:43.391Z,96749.20
2023-04-02T02:49:15.388Z,96746.13
2023-04-02T02:51:49.768Z,96754.55
2023-04-02T02:54:21.788Z,96753.55
2023-04-02T02:56:53.657Z,96751.55
2023-04-02T02:59:22.700Z,96755.79
2023-04-02T03:01:50.832Z,96757.77
2023-04-02T03:04:23.154Z,96758.72
2023-04-02T03:06:52.371Z,96759.81
2023-04-02T03:09:34.322Z,96763.10
2023-04-02T03:12:07.052Z,96765.04
2023-04-02T03:14:51.365Z,96766.64
2023-04-02T03:17:26.511Z,96766.24
2023-04-02T03:19:57.542Z,96765.92
2023-04-02T03:22:34.846Z,96766.98
2023-04-02T03:25:20.839Z,96770.43
2023-04-02T03:27:51.804Z,96771.66
2023-04-02T03:30:38.672Z,96772.73
2023-04-02T03:33:13.417Z,96774.97
2023-04-02T03:35:45.615Z,96780.42
2023-04-02T03:38:36.182Z,96780.46
2023-04-02T03:41:14.986Z,96783.33
2023-04-02T03:43:46.557Z,96785.88
2023-04-02T03:46:20.625Z,96788.86
2023-04-02T03:48:51.656Z,96787.17
2023-04-02T03:51:20.123Z,96790.39
2023-04-02T03:53:48.874Z,96792.45
2023-04-02T03:56:30.766Z,96794.02
2023-04-02T03:59:19.365Z,96796.83
2023-04-02T04:02:10.743Z,96798.36
2023-04-02T04:04:40.808Z,96801.69
2023-04-02T04:07:21.699Z,96806.52
2023-04-02T04:09:51.527Z,96810.02
2023-04-02T04:12:25.522Z,96810.10
2023-04-02T04:14:58.126Z,96817.02
2023-04-02T04:17:48.193Z,96817.50
2023-04-02T04:20:19.825Z,96825.16
2023-04-02T04:22:51.585Z,96829.52
2023-04-02T04:25:25.399Z,96831.05
2023-04-02T04:28:10.098Z,96832.58
2023-04-02T04:30:46.328Z,96835.32
2023-04-02T04:33:20.490Z,96835.00
2023-04-02T04:35:54.752Z,96837.91
2023-04-02T04:38:31.931Z,96841.10
2023-04-02T04:41:12.770Z,96844.90
2023-04-02T04:43:51.548Z,96845.54
2023-04-02T04:46:22.999Z,96846.96
2023-04-02T04:48:58.301Z,96851.10
2023-04-02T04:51:35.872Z,96852.63
2023-04-02T04:54:03.988Z,96852.08
2023-04-02T04:56:35.044Z,96856.30
2023-04-02T04:59:25.848Z,96858.41
2023-04-02T05:02:07.676Z,96862.00
2023-04-02T05:04:38.489Z,96862.95
2023-04-02T05:07:07.730Z,96862.90
2023-04-02T05:10:00.661Z,96863.52
2023-04-02T05:12:31.827Z,96866.83
2023-04-02T05:15:02.837Z,96867.06
2023-04-02T05:17:50.549Z,96867.70
2023-04-02T05:20:24.729Z,96871.56
2023-04-02T05:22:56.078Z,96877.04
2023-04-02T05:25:30.409Z,96878.93
2023-04-02T05:28:07.779Z,96885.60
2023-04-02T05:30:43.757Z,96884.43
2023-04-02T05:33:14.839Z,96887.23
2023-04-02T05:35:48.927Z,96893.52
2023-04-02T05:38:21.150Z,96894.59
2023-04-02T05:40:53.207Z,96896.44
2023-04-02T05:43:24.122Z,96900.31
2023-04-02T05:45:57.651Z,96903.80
2023-04-02T05:48:38.502Z,96907.95
2023-04-02T05:51:12.158Z,96907.91
2023-04-02T05:53:47.358Z,96910.87
2023-04-02T05:56:25.432Z,96913.23
2023-04-02T05:59:01.097Z,96913.01
2023-04-02T06:01:35.864Z,96917.08
2023-04-02T06:04:17.398Z,96920.64
2023-04-02T06:07:18.194Z,96922.57
2023-04-02T06:09:56.465Z,96922.63
2023-04-02T06:12:28.720Z,96924.61
2023-04-02T06:15:09.589Z,96929.30
2023-04-02T06:17:53.646Z,96935.42
2023-04-02T06:20:21.630Z,96944.95
2023-04-02T06:23:01.988Z,96945.16
2023-04-02T06:25:36.174Z,96951.91
2023-04-02T06:28:24.476Z,96960.87
2023-04-02T06:30:58.121Z,96966.45
2023-04-02T06:33:35.105Z,96971.86
2023-04-02T06:36:13.941Z,96975.98
2023-04-02T06:38:43.128Z,96983.40
2023-04-02T06:41:19.591Z,96988.62
2023-04-02T06:44:32.632Z,96993.27
2023-04-02T06:47:13.310Z,97003.40
2023-04-02T06:50:01.475Z,97002.69
2023-04-02T06:52:43.322Z,97005.45
2023-04-02T06:55:20.513Z,97014.00
2023-04-02T06:57:52.057Z,97021.03
2023-04-02T07:00:35.600Z,97025.44
2023-04-02T07:03:06.751Z,97027.98
2023-04-02T07:05:35.549Z,97033.84
2023-04-02T07:08:10.960Z,97040.19
2023-04-02T07:10:38.957Z,97045.45
2023-04-02T07:13:06.906Z,97050.52
2023-04-02T07:15:35.169Z,97057.52
2023-04-02T07:18:03.537Z,97063.98
2023-04-02T07:20:35.294Z,97066.94
2023-04-02T07:23:06.623Z,97076.66
2023-04-02T07:25:34.705Z,97082.48
2023-04-02T07:28:05.544Z,97088.52
2023-04-02T07:30:33.684Z,97095.46
2023-04-02T07:33:04.399Z,97094.71
2023-04-02T07:35:32.593Z,97101.85
2023-04-02T07:38:03.365Z,97104.42
2023-04-02T07:40:31.188Z,97108.60
2023-04-02T07:42:59.072Z,97115.95
2023-04-02T07:45:27.030Z,97119.80
2023-04-02T07:47:55.185Z,97127.40
2023-04-02T07:50:23.185Z,97130.18
2023-04-02T07:52:51.083Z,97139.05
2023-04-02T07:55:19.027Z,97143.64
2023-04-02T07:57:49.581Z,97147.42
2023-04-02T08:00:18.066Z,97152.45
2023-04-02T08:02:46.558Z,97156.52
2023-04-02T08:05:14.537Z,97159.65
2023-04-02T08:07:42.472Z,97162.34
2023-04-02T08:10:11.900Z,97163.25
2023-04-02T08:12:40.017Z,97169.72
2023-04-02T08:15:08.166Z,97175.67
2023-04-02T08:17:36.279Z,97180.56
2023-04-02T08:20:04.568Z,97182.44
2023-04-02T08:22:33.404Z,97185.85
2023-04-02T08:25:03.965Z,97189.34
2023-04-02T08:27:37.480Z,97195.34
2023-04-02T08:30:06.477Z,97198.98
2023-04-02T08:32:37.720Z,97199.04
2023-04-02T08:35:06.316Z,97206.85
2023-04-02T08:37:34.193Z,97209.89
2023-04-02T08:40:02.309Z,97213.27
2023-04-02T08:42:50.312Z,97215.02
2023-04-02T08:45:44.636Z,97221.19
2023-04-02T08:48:21.887Z,97223.73
2023-04-02T08:50:52.761Z,97228.68
2023-04-02T08:53:25.743Z,97234.42
2023-04-02T08:55:58.145Z,97235.89
2023-04-02T08:58:33.681Z,97238.70
2023-04-02T09:01:03.424Z,97237.61
2023-04-02T09:03:42.993Z,97239.09
2023-04-02T09:06:16.687Z,97241.88
2023-04-02T09:08:46.622Z,97241.90
2023-04-02T09:11:20.744Z,97241.20
2023-04-02T09:13:51.127Z,97246.69
2023-04-02T09:16:20.092Z,97251.92
2023-04-02T09:18:49.160Z,97259.10
2023-04-02T09:21:32.525Z,97264.69
2023-04-02T09:24:01.565Z,97268.16
2023-04-02T09:26:32.692Z,97277.29
2023-04-02T09:29:20.656Z,97279.67
2023-04-02T09:31:53.753Z,97285.21
2023-04-02T09:34:31.695Z,97286.05
2023-04-02T09:37:19.624Z,97293.07
2023-04-02T09:39:48.013Z,97294.33
2023-04-02T09:42:51.524Z,97300.30
2023-04-02T09:45:24.749Z,97303.71
2023-04-02T09:47:58.096Z,97308.62
2023-04-02T09:50:28.326Z,97312.91
2023-04-02T09:52:56.181Z,97318.02
2023-04-02T09:55:34.659Z,97317.55
2023-04-02T09:58:26.987Z,97313.98
2023-04-02T10:01:01.110Z,97321.96
2023-04-02T10:03:42.895Z,97320.52
2023-04-02T10:06:31.370Z,97321.08
2023-04-02T10:09:18.514Z,97323.36
2023-04-02T10:11:47.052Z,97325.61
2023-04-02T10:14:35.342Z,97327.06
2023-04-02T10:17:12.422Z,97337.46
2023-04-02T10:19:42.490Z,97341.52
2023-04-02T10:22:22.596Z,97344.46
2023-04-02T10:24:53.943Z,97351.83
2023-04-02T10:27:43.499Z,97358.06
2023-04-02T10:30:34.366Z,97360.84
2023-04-02T10:33:15.300Z,97358.51
2023-04-02T10:36:08.519Z,97359.59
2023-04-02T10:39:12.213Z,97360.34
2023-04-02T10:41:46.523Z,97363.59
2023-04-02T10:44:20.891Z,97365.91
2023-04-02T10:46:55.379Z,97375.24
2023-04-02T10:49:39.613Z,97375.98
2023-04-02T10:52:20.111Z,97378.28
2023-04-02T10:54:49.263Z,97380.55
2023-04-02T10:57:32.652Z,97383.84
2023-04-02T11:00:08.086Z,97393.55
2023-04-02T11:02:39.217Z,97396.00
2023-04-02T11:05:14.786Z,97394.38
2023-04-02T11:07:51.888Z,97403.04
2023-04-02T11:10:20.418Z,97406.20
2023-04-02T11:12:55.112Z,97406.79
2023-04-02T11:15:23.552Z,97408.05
2023-04-02T11:17:54.382Z,97414.84
2023-04-02T11:20:41.299Z,97418.03
2023-04-02T11:23:11.366Z,97422.52
2023-04-02T11:25:40.100Z,97422.33
2023-04-02T11:28:20.466Z,97427.23
2023-04-02T11:30:48.634Z,97431.23
2023-04-02T11:33:38.200Z,97432.84
2023-04-02T11:36:26.512Z,97436.79
2023-04-02T11:38:57.628Z,97436.84
2023-04-02T11:41:48.393Z,97446.16
2023-04-02T11:44:23.716Z,97440.27
2023-04-02T11:46:51.759Z,97447.00
2023-04-02T11:49:36.441Z,97449.11
2023-04-02T11:52:12.034Z,97454.27
2023-04-02T11:54:40.686Z,97450.74
2023-04-02T11:57:44.811Z,97457.77
2023-04-02T12:00:23.597Z,97457.15
2023-04-02T12:03:10.294Z,97460.33
2023-04-02T12:05:49.082Z,97459.08
2023-04-02T12:08:19.917Z,97462.58
2023-04-02T12:10:58.989Z,97465.45
2023-04-02T12:13:39.153Z,97466.13
2023-04-02T12:16:14.451Z,97468.85
2023-04-02T12:18:52.493Z,97470.94
2023-04-02T12:21:22.576Z,97476.14
2023-04-02T12:23:51.972Z,97476.14
2023-04-02T12:26:31.233Z,97479.88
2023-04-02T12:29:21.914Z,97478.81
2023-04-02T12:31:50.079Z,97480.45
2023-04-02T12:34:19.415Z,97482.80
2023-04-02T12:36:54.860Z,97489.23
2023-04-02T12:39:24.287Z,97491.38
2023-04-02T12:41:53.012Z,97495.89
2023-04-02T12:44:28.534Z,97494.17
2023-04-02T12:46:59.071Z,97498.11
2023-04-02T12:49:43.414Z,97505.25
2023-04-02T12:52:16.109Z,97504.45
2023-04-02T12:54:48.702Z,97500.16
2023-04-02T12:57:30.722Z,97506.73
2023-04-02T12:59:59.855Z,97512.73
2023-04-02T13:02:29.233Z,97518.95
2023-04-02T13:05:01.094Z,97513.87
2023-04-02T13:07:33.097Z,97520.87
2023-04-02T13:10:02.900Z,97526.54
2023-04-02T13:12:36.837Z,97528.82
2023-04-02T13:15:20.524Z,97534.16
2023-04-02T13:18:01.813Z,97533.88
2023-04-02T13:20:31.525Z,97539.81
2023-04-02T13:23:00.226Z,97543.27
2023-04-02T13:25:35.613Z,97545.92
2023-04-02T13:28:03.495Z,97544.43
2023-04-02T13:30:31.349Z,97546.43
2023-04-02T13:32:59.233Z,97550.03
2023-04-02T13:35:27.282Z,97555.13
2023-04-02T13:37:57.831Z,97561.15
2023-04-02T13:40:28.876Z,97562.84
2023-04-02T13:42:56.792Z,97566.39
2023-04-02T13:45:26.768Z,97568.46
2023-04-02T13:47:57.919Z,97571.24
2023-04-02T13:50:25.723Z,97573.83
2023-04-02T13:52:54.061Z,97576.77
2023-04-02T13:55:23.331Z,97578.66
2023-04-02T13:57:54.853Z,97579.52
2023-04-02T14:00:22.860Z,97581.08
2023-04-02T14:02:59.920Z,97582.63
2023-04-02T14:05:45.120Z,97580.73
2023-04-02T14:08:25.386Z,97585.44
2023-04-02T14:11:15.099Z,97595.40
2023-04-02T14:13:46.023Z,97596.35
2023-04-02T14:16:33.021Z,97595.82
2023-04-02T14:19:19.981Z,97604.14
2023-04-02T14:22:03.682Z,97605.55
2023-04-02T14:24:44.428Z,97605.37
2023-04-02T14:27:22.585Z,97607.64
2023-04-02T14:30:09.365Z,97613.74
2023-04-02T14:32:56.381Z,97612.88
2023-04-02T14:35:30.338Z,97616.42
2023-04-02T14:37:58.190Z,97616.89
2023-04-02T14:40:37.310Z,97619.80
2023-04-02T14:43:12.241Z,97626.14
2023-04-02T14:45:40.179Z,97629.41
2023-04-02T14:48:17.233Z,97626.56
2023-04-02T14:50:48.963Z,97632.34
2023-04-02T14:53:26.466Z,97634.98
2023-04-02T14:55:57.676Z,97637.13
2023-04-02T14:58:28.086Z,97643.20
2023-04-02T15:01:06.326Z,97644.20
2023-04-02T15:03:43.440Z,97645.62
2023-04-02T15:06:15.227Z,97647.00
2023-04-02T15:08:58.512Z,97644.15
2023-04-02T15:11:50.846Z,97646.77
2023-04-02T15:14:48.314Z,97652.20
2023-04-02T15:17:16.169Z,97658.41
2023-04-02T15:19:44.182Z,97656.37
2023-04-02T15:22:12.178Z,97662.10
2023-04-02T15:24:58.533Z,97662.56
2023-04-02T15:27:39.687Z,97667.59
2023-04-02T15:30:12.235Z,97668.34
2023-04-02T15:32:40.691Z,97674.39
2023-04-02T15:35:27.747Z,97677.22
2023-04-02T15:38:14.498Z,97680.59
2023-04-02T15:41:01.313Z,97689.77
2023-04-02T15:43:55.639Z,97690.08
2023-04-02T15:46:23.863Z,97694.41
2023-04-02T15:48:57.573Z,97699.61
2023-04-02T15:51:28.803Z,97700.47
2023-04-02T15:54:13.401Z,97702.45
2023-04-02T15:56:44.248Z,97708.70
2023-04-02T15:59:24.648Z,97709.29
2023-04-02T16:02:11.507Z,97715.83
2023-04-02T16:04:51.963Z,97717.98
2023-04-02T16:07:38.380Z,97719.71
2023-04-02T16:10:06.363Z,97723.55
2023-04-02T16:12:36.935Z,97723.92
2023-04-02T16:15:13.993Z,97724.05
2023-04-02T16:17:44.832Z,97733.94
2023-04-02T16:20:16.889Z,97734.80
2023-04-02T16:22:59.289Z,97739.00
2023-04-02T16:25:31.559Z,97739.77
2023-04-02T16:28:22.860Z,97746.52
2023-04-02T16:30:58.029Z,97747.45
2023-04-02T16:33:32.335Z,97757.30
2023-04-02T16:36:03.875Z,97757.85
2023-04-02T16:38:40.903Z,97762.50
2023-04-02T16:41:11.872Z,97764.20
2023-04-02T16:43:49.265Z,97764.60
2023-04-02T16:46:38.390Z,97770.12
2023-04-02T16:49:16.404Z,97772.90
2023-04-02T16:52:09.402Z,97774.02
2023-04-02T16:54:43.488Z,97782.54
2023-04-02T16:57:17.897Z,97787.56
2023-04-02T16:59:56.402Z,97789.33
2023-04-02T17:02:24.933Z,97789.95
2023-04-02T17:04:56.858Z,97793.03
2023-04-02T17:07:33.074Z,97792.95
2023-04-02T17:10:21.515Z,97799.25
2023-04-02T17:12:54.438Z,97808.41
2023-04-02T17:15:28.398Z,97810.82
2023-04-02T17:18:00.975Z,97810.15
2023-04-02T17:20:29.412Z,97811.96
2023-04-02T17:22:58.279Z,97814.48
2023-04-02T17:25:32.424Z,97816.05
2023-04-02T17:28:01.708Z,97818.13
2023-04-02T17:30:41.120Z,97820.75
2023-04-02T17:33:16.316Z,97823.90
2023-04-02T17:36:00.240Z,97827.05
2023-04-02T17:38:51.132Z,97828.11
2023-04-02T17:41:25.576Z,97835.06
2023-04-02T17:43:59.540Z,97834.85
2023-04-02T17:46:46.582Z,97839.95
2023-04-02T17:49:20.558Z,97840.05
2023-04-02T17:51:57.494Z,97841.29
2023-04-02T17:54:28.951Z,97840.30
2023-04-02T17:57:12.943Z,97840.33
2023-04-02T17:59:50.834Z,97841.69
2023-04-02T18:02:39.090Z,97846.40
2023-04-02T18:05:08.555Z,97847.38
2023-04-02T18:07:46.549Z,97845.98
2023-04-02T18:10:41.040Z,97849.37
2023-04-02T18:13:33.027Z,97850.95
2023-04-02T18:16:31.208Z,97853.52
2023-04-02T18:19:02.673Z,97853.17
2023-04-02T18:21:49.737Z,97855.23
2023-04-02T18:24:39.821Z,97858.69
2023-04-02T18:27:27.310Z,97864.90
2023-04-02T18:30:22.711Z,97866.80
2023-04-02T18:33:12.818Z,97872.02
2023-04-02T18:36:11.192Z,97875.48
2023-04-02T18:39:02.006Z,97877.33
2023-04-02T18:42:06.341Z,97876.17
2023-04-02T18:44:47.637Z,97879.09
2023-04-02T18:47:24.523Z,97883.05
2023-04-02T18:50:11.789Z,97886.91
2023-04-02T18:52:41.620Z,97889.28
2023-04-02T18:55:18.400Z,97890.68
2023-04-02T18:57:51.528Z,97891.55
2023-04-02T19:00:26.226Z,97898.85
2023-04-02T19:03:26.196Z,97900.02
2023-04-02T19:06:16.110Z,97902.95
2023-04-02T19:08:48.293Z,97902.58
2023-04-02T19:11:18.029Z,97907.84
2023-04-02T19:13:45.988Z,97908.55
2023-04-02T19:16:14.326Z,97911.30
2023-04-02T19:18:42.725Z,97915.58
2023-04-02T19:21:29.847Z,97918.83
2023-04-02T19:24:16.689Z,97919.34
2023-04-02T19:26:52.825Z,97923.14
2023-04-02T19:29:21.057Z,97925.09
2023-04-02T19:32:00.388Z,97924.16
2023-04-02T19:34:37.824Z,97927.81
2023-04-02T19:37:11.285Z,97924.43
2023-04-02T19:39:51.818Z,97926.48
2023-04-02T19:42:20.009Z,97928.86
2023-04-02T19:44:50.192Z,97931.07
2023-04-02T19:47:18.806Z,97929.02
2023-04-02T19:49:47.276Z,97932.58
2023-04-02T19:52:15.941Z,97929.66
2023-04-02T19:54:49.624Z,97933.05
2023-04-02T19:57:17.915Z,97930.13
2023-04-02T19:59:45.935Z,97932.59
2023-04-02T20:02:13.977Z,97932.59
2023-04-02T20:04:42.428Z,97939.09
2023-04-02T20:07:12.427Z,97941.23
2023-04-02T20:09:40.513Z,97945.09
2023-04-02T20:12:08.525Z,97946.82
2023-04-02T20:14:36.310Z,97944.73
2023-04-02T20:17:04.461Z,97944.14
2023-04-02T20:19:33.080Z,97944.47
2023-04-02T20:22:00.959Z,97947.08
2023-04-02T20:24:28.872Z,97954.16
2023-04-02T20:26:56.970Z,97958.72
2023-04-02T20:29:24.846Z,97958.01
2023-04-02T20:31:52.812Z,97961.95
2023-04-02T20:34:21.135Z,97964.87
2023-04-02T20:36:49.150Z,97965.75
2023-04-02T20:39:17.227Z,97970.39
2023-04-02T20:41:45.774Z,97971.77
2023-04-02T20:44:13.914Z,97974.04
2023-04-02T20:46:44.240Z,97975.92
2023-04-02T20:49:15.458Z,97977.27
2023-04-02T20:51:43.430Z,97983.35
2023-04-02T20:54:11.331Z,97987.80
2023-04-02T20:56:39.314Z,97984.95
2023-04-02T20:59:07.186Z,97989.15
2023-04-02T21:01:35.155Z,97990.85
2023-04-02T21:04:03.646Z,97992.48
2023-04-02T21:06:33.848Z,97995.98
2023-04-02T21:09:03.149Z,97993.96
2023-04-02T21:11:31.021Z,97997.03
2023-04-02T21:13:58.752Z,97997.04
2023-04-02T21:16:28.383Z,98002.22
2023-04-02T21:18:57.042Z,98000.34
2023-04-02T21:21:25.137Z,98002.19
2023-04-02T21:23:54.750Z,98003.15
2023-04-02T21:26:23.165Z,97998.19
2023-04-02T21:29:01.513Z,97998.94
2023-04-02T21:31:30.543Z,97997.80
2023-04-02T21:33:58.732Z,98000.88
2023-04-02T21:36:28.225Z,98004.06
2023-04-02T21:38:57.672Z,98007.96
2023-04-02T21:41:29.071Z,98006.63
2023-04-02T21:44:00.088Z,98011.60
2023-04-02T21:46:30.529Z,98010.13
2023-04-02T21:49:09.789Z,98014.65
2023-04-02T21:51:38.609Z,98020.02
2023-04-02T21:54:10.713Z,98019.67
2023-04-02T21:56:52.538Z,98024.40
2023-04-02T21:59:44.866Z,98025.16
2023-04-02T22:02:26.992Z,98026.56
2023-04-02T22:05:15.965Z,98034.00
2023-04-02T22:08:04.635Z,98036.17
2023-04-02T22:10:35.618Z,98032.14
2023-04-02T22:13:21.133Z,98032.38
2023-04-02T22:16:13.968Z,98032.86
2023-04-02T22:19:06.620Z,98035.73
2023-04-02T22:21:40.882Z,98045.45
2023-04-02T22:24:32.855Z,98041.33
2023-04-02T22:27:03.124Z,98044.35
2023-04-02T22:29:31.024Z,98048.40
2023-04-02T22:32:04.351Z,98050.70
2023-04-02T22:34:47.016Z,98051.49
2023-04-02T22:37:14.870Z,98053.52
2023-04-02T22:39:42.830Z,98055.79
2023-04-02T22:42:33.846Z,98056.73
2023-04-02T22:45:04.857Z,98055.38
2023-04-02T22:47:32.859Z,98056.98
2023-04-02T22:50:08.343Z,98060.40
2023-04-02T22:52:36.260Z,98062.20
2023-04-02T22:55:07.723Z,98060.62
2023-04-02T22:57:35.795Z,98060.54
2023-04-02T23:00:10.230Z,98059.56
2023-04-02T23:02:38.726Z,98063.41
2023-04-02T23:05:07.452Z,98065.48
2023-04-02T23:07:35.650Z,98064.16
2023-04-02T23:10:05.804Z,98069.31
2023-04-02T23:12:36.993Z,98070.05
2023-04-02T23:15:05.068Z,98064.20
2023-04-02T23:17:32.977Z,98067.19
2023-04-02T23:20:00.987Z,98068.95
2023-04-02T23:22:28.919Z,98068.62
2023-04-02T23:24:56.927Z,98067.58
2023-04-02T23:27:24.907Z,98062.34
2023-04-02T23:29:52.681Z,98063.53
2023-04-02T23:32:20.441Z,98062.83
2023-04-02T23:34:50.709Z,98067.61
2023-04-02T23:37:18.496Z,98067.09
2023-04-02T23:39:55.417Z,98068.41
2023-04-02T23:42:23.385Z,98070.81
2023-04-02T23:44:51.251Z,98072.08
2023-04-02T23:47:19.096Z,98071.91
2023-04-02T23:49:46.896Z,98071.58
2023-04-02T23:52:17.782Z,98076.16
2023-04-02T23:54:45.746Z,98079.20
2023-04-02T23:57:13.788Z,98079.36
2023-04-02T23:59:41.668Z,98081.23
